sensor_id;sensor_type;location;lat;lon;timestamp;pressure;altitude;pressure_sealevel;temperature;humidity
17781;BME280;8498;52.516;13.790;2023-04-28T00:03:26;101473.13;;;3.97;77.80
17781;BME280;8498;52.516;13.790;2023-04-28T00:08:49;101473.94;;;3.99;77.35
17781;BME280;8498;52.516;13.790;2023-04-28T00:14:12;101467.31;;;3.86;78.08
17781;BME280;8498;52.516;13.790;2023-04-28T00:19:35;101465.03;;;3.74;78.22
17781;BME280;8498;52.516;13.790;2023-04-28T00:24:57;101463.47;;;3.66;78.92
17781;BME280;8498;52.516;13.790;2023-04-28T00:30:19;101457.34;;;3.66;78.44
17781;BME280;8498;52.516;13.790;2023-04-28T00:35:42;101462.75;;;3.61;78.90
17781;BME280;8498;52.516;13.790;2023-04-28T00:41:04;101454.91;;;3.60;78.85
17781;BME280;8498;52.516;13.790;2023-04-28T00:46:29;101448.09;;;3.53;78.77
17781;BME280;8498;52.516;13.790;2023-04-28T00:51:52;101454.34;;;3.47;79.17
17781;BME280;8498;52.516;13.790;2023-04-28T00:57:14;101451.75;;;3.46;79.11
17781;BME280;8498;52.516;13.790;2023-04-28T01:02:37;101442.19;;;3.43;78.85
17781;BME280;8498;52.516;13.790;2023-04-28T01:08:00;101439.66;;;3.40;78.80
17781;BME280;8498;52.516;13.790;2023-04-28T01:13:22;101449.34;;;3.38;79.05
17781;BME280;8498;52.516;13.790;2023-04-28T01:18:46;101448.50;;;3.36;78.88
17781;BME280;8498;52.516;13.790;2023-04-28T01:24:09;101444.34;;;3.29;79.27
17781;BME280;8498;52.516;13.790;2023-04-28T01:29:32;101435.56;;;3.30;79.13
17781;BME280;8498;52.516;13.790;2023-04-28T01:34:54;101426.09;;;3.23;79.44
17781;BME280;8498;52.516;13.790;2023-04-28T01:40:17;101422.00;;;3.13;80.44
17781;BME280;8498;52.516;13.790;2023-04-28T01:45:40;101424.59;;;3.13;80.60
17781;BME280;8498;52.516;13.790;2023-04-28T01:51:02;101430.63;;;3.18;80.02
17781;BME280;8498;52.516;13.790;2023-04-28T01:56:24;101423.59;;;3.18;79.72
17781;BME280;8498;52.516;13.790;2023-04-28T02:01:49;101419.47;;;3.10;80.09
17781;BME280;8498;52.516;13.790;2023-04-28T02:07:12;101423.88;;;3.08;80.90
17781;BME280;8498;52.516;13.790;2023-04-28T02:12:36;101420.44;;;3.06;81.34
17781;BME280;8498;52.516;13.790;2023-04-28T02:17:58;101410.34;;;3.23;81.11
17781;BME280;8498;52.516;13.790;2023-04-28T02:23:20;101409.38;;;3.27;80.53
17781;BME280;8498;52.516;13.790;2023-04-28T02:28:43;101412.19;;;3.21;80.50
17781;BME280;8498;52.516;13.790;2023-04-28T02:34:05;101413.97;;;3.19;80.52
17781;BME280;8498;52.516;13.790;2023-04-28T02:39:27;101402.75;;;3.12;81.19
17781;BME280;8498;52.516;13.790;2023-04-28T02:44:51;101405.34;;;3.14;80.65
17781;BME280;8498;52.516;13.790;2023-04-28T02:50:13;101388.91;;;3.07;81.42
17781;BME280;8498;52.516;13.790;2023-04-28T02:55:36;101389.91;;;3.02;81.26
17781;BME280;8498;52.516;13.790;2023-04-28T03:01:01;101389.91;;;3.02;81.91
17781;BME280;8498;52.516;13.790;2023-04-28T03:06:23;101379.38;;;3.03;81.47
17781;BME280;8498;52.516;13.790;2023-04-28T03:11:45;101375.84;;;3.04;81.58
17781;BME280;8498;52.516;13.790;2023-04-28T03:17:08;101381.06;;;3.06;81.63
17781;BME280;8498;52.516;13.790;2023-04-28T03:22:30;101373.00;;;3.12;81.78
17781;BME280;8498;52.516;13.790;2023-04-28T03:27:52;101372.09;;;3.13;82.09
17781;BME280;8498;52.516;13.790;2023-04-28T03:33:16;101366.78;;;3.16;82.75
17781;BME280;8498;52.516;13.790;2023-04-28T03:38:39;101363.16;;;3.21;82.90
17781;BME280;8498;52.516;13.790;2023-04-28T03:44:01;101362.78;;;3.33;82.51
17781;BME280;8498;52.516;13.790;2023-04-28T03:49:30;101367.78;;;3.43;82.19
17781;BME280;8498;52.516;13.790;2023-04-28T03:54:52;101366.53;;;3.56;81.82
17781;BME280;8498;52.516;13.790;2023-04-28T04:00:15;101361.88;;;3.65;81.56
17781;BME280;8498;52.516;13.790;2023-04-28T04:05:39;101365.91;;;3.79;81.13
17781;BME280;8498;52.516;13.790;2023-04-28T04:11:02;101349.03;;;3.86;81.48
17781;BME280;8498;52.516;13.790;2023-04-28T04:16:26;101349.41;;;4.03;80.88
17781;BME280;8498;52.516;13.790;2023-04-28T04:21:51;101341.81;;;4.22;79.60
17781;BME280;8498;52.516;13.790;2023-04-28T04:27:13;101350.16;;;4.34;78.31
17781;BME280;8498;52.516;13.790;2023-04-28T04:32:36;101341.81;;;4.48;77.91
17781;BME280;8498;52.516;13.790;2023-04-28T04:37:59;101340.56;;;4.60;77.82
17781;BME280;8498;52.516;13.790;2023-04-28T04:43:22;101332.16;;;4.75;77.04
17781;BME280;8498;52.516;13.790;2023-04-28T04:48:45;101332.25;;;4.98;76.46
17781;BME280;8498;52.516;13.790;2023-04-28T04:54:08;101323.50;;;5.21;75.40
17781;BME280;8498;52.516;13.790;2023-04-28T04:59:32;101317.88;;;5.32;75.02
17781;BME280;8498;52.516;13.790;2023-04-28T05:05:02;101319.91;;;5.48;74.47
17781;BME280;8498;52.516;13.790;2023-04-28T05:10:46;101316.63;;;5.65;73.73
17781;BME280;8498;52.516;13.790;2023-04-28T05:16:09;101305.63;;;5.77;73.57
17781;BME280;8498;52.516;13.790;2023-04-28T05:21:31;101302.41;;;5.93;72.72
17781;BME280;8498;52.516;13.790;2023-04-28T05:26:57;101300.91;;;6.09;72.31
17781;BME280;8498;52.516;13.790;2023-04-28T05:32:20;101303.66;;;6.28;71.78
17781;BME280;8498;52.516;13.790;2023-04-28T05:37:42;101306.47;;;6.45;71.29
17781;BME280;8498;52.516;13.790;2023-04-28T05:43:06;101294.72;;;6.74;70.48
17781;BME280;8498;52.516;13.790;2023-04-28T05:48:29;101299.06;;;6.95;69.67
17781;BME280;8498;52.516;13.790;2023-04-28T05:53:52;101286.63;;;7.17;69.03
17781;BME280;8498;52.516;13.790;2023-04-28T05:59:14;101282.75;;;7.45;68.34
17781;BME280;8498;52.516;13.790;2023-04-28T06:04:38;101281.19;;;7.59;68.84
17781;BME280;8498;52.516;13.790;2023-04-28T06:10:01;101270.03;;;7.90;67.91
17781;BME280;8498;52.516;13.790;2023-04-28T06:15:23;101272.75;;;8.25;67.09
17781;BME280;8498;52.516;13.790;2023-04-28T06:20:46;101267.38;;;8.45;66.46
17781;BME280;8498;52.516;13.790;2023-04-28T06:26:08;101252.44;;;8.78;64.78
17781;BME280;8498;52.516;13.790;2023-04-28T06:31:33;101255.09;;;9.11;64.27
17781;BME280;8498;52.516;13.790;2023-04-28T06:36:59;101245.94;;;9.34;61.91
17781;BME280;8498;52.516;13.790;2023-04-28T06:42:21;101245.00;;;9.51;62.13
17781;BME280;8498;52.516;13.790;2023-04-28T06:47:52;101230.66;;;9.71;60.39
17781;BME280;8498;52.516;13.790;2023-04-28T06:53:17;101229.69;;;10.03;59.87
17781;BME280;8498;52.516;13.790;2023-04-28T06:58:39;101221.09;;;10.14;58.45
17781;BME280;8498;52.516;13.790;2023-04-28T07:04:02;101216.69;;;10.44;59.06
17781;BME280;8498;52.516;13.790;2023-04-28T07:09:25;101218.22;;;10.78;54.97
17781;BME280;8498;52.516;13.790;2023-04-28T07:14:48;101207.94;;;11.00;52.71
17781;BME280;8498;52.516;13.790;2023-04-28T07:20:14;101206.63;;;11.22;51.96
17781;BME280;8498;52.516;13.790;2023-04-28T07:25:36;101195.22;;;11.48;51.11
17781;BME280;8498;52.516;13.790;2023-04-28T07:31:00;101212.78;;;11.51;50.36
17781;BME280;8498;52.516;13.790;2023-04-28T07:36:23;101192.63;;;11.61;50.46
17781;BME280;8498;52.516;13.790;2023-04-28T07:41:46;101186.13;;;11.79;49.80
17781;BME280;8498;52.516;13.790;2023-04-28T07:47:08;101187.94;;;12.05;49.93
17781;BME280;8498;52.516;13.790;2023-04-28T07:52:31;101185.88;;;12.23;48.04
17781;BME280;8498;52.516;13.790;2023-04-28T07:57:54;101172.06;;;12.43;47.74
17781;BME280;8498;52.516;13.790;2023-04-28T08:03:17;101163.97;;;12.58;46.93
17781;BME280;8498;52.516;13.790;2023-04-28T08:08:40;101156.28;;;12.78;47.28
17781;BME280;8498;52.516;13.790;2023-04-28T08:14:03;101161.22;;;12.97;47.24
17781;BME280;8498;52.516;13.790;2023-04-28T08:19:25;101153.28;;;13.21;48.00
17781;BME280;8498;52.516;13.790;2023-04-28T08:24:48;101146.00;;;13.36;46.86
17781;BME280;8498;52.516;13.790;2023-04-28T08:30:10;101140.81;;;13.58;47.72
17781;BME280;8498;52.516;13.790;2023-04-28T08:35:33;101132.97;;;13.91;45.85
17781;BME280;8498;52.516;13.790;2023-04-28T08:40:55;101132.03;;;14.04;45.72
17781;BME280;8498;52.516;13.790;2023-04-28T08:46:20;101122.25;;;14.15;45.75
17781;BME280;8498;52.516;13.790;2023-04-28T08:51:49;101128.44;;;14.40;45.77
17781;BME280;8498;52.516;13.790;2023-04-28T08:57:17;101119.44;;;14.41;44.56
17781;BME280;8498;52.516;13.790;2023-04-28T09:02:41;101114.50;;;14.58;44.58
17781;BME280;8498;52.516;13.790;2023-04-28T09:08:04;101111.97;;;14.90;43.82
17781;BME280;8498;52.516;13.790;2023-04-28T09:13:26;101099.56;;;15.12;44.22
17781;BME280;8498;52.516;13.790;2023-04-28T09:18:56;101092.72;;;15.07;42.58
17781;BME280;8498;52.516;13.790;2023-04-28T09:29:52;101068.53;;;15.95;42.28
17781;BME280;8498;52.516;13.790;2023-04-28T09:35:15;101069.47;;;16.05;40.84
17781;BME280;8498;52.516;13.790;2023-04-28T09:46:27;101050.50;;;16.39;41.01
17781;BME280;8498;52.516;13.790;2023-04-28T09:51:50;101040.34;;;16.73;40.39
17781;BME280;8498;52.516;13.790;2023-04-28T09:57:13;101050.75;;;16.97;40.73
17781;BME280;8498;52.516;13.790;2023-04-28T10:02:37;101025.13;;;17.23;40.00
17781;BME280;8498;52.516;13.790;2023-04-28T10:08:02;101032.34;;;17.42;40.96
17781;BME280;8498;52.516;13.790;2023-04-28T10:13:25;101020.81;;;16.92;40.13
17781;BME280;8498;52.516;13.790;2023-04-28T10:18:48;101022.31;;;17.44;39.95
17781;BME280;8498;52.516;13.790;2023-04-28T10:24:17;101011.03;;;17.79;39.30
17781;BME280;8498;52.516;13.790;2023-04-28T10:29:43;101007.31;;;17.99;39.57
17781;BME280;8498;52.516;13.790;2023-04-28T10:40:54;100982.41;;;17.97;38.99
17781;BME280;8498;52.516;13.790;2023-04-28T10:46:22;100985.13;;;18.44;39.29
17781;BME280;8498;52.516;13.790;2023-04-28T10:51:44;100974.00;;;18.66;38.56
17781;BME280;8498;52.516;13.790;2023-04-28T10:57:17;100967.75;;;19.11;37.50
17781;BME280;8498;52.516;13.790;2023-04-28T11:02:40;100964.78;;;19.14;36.24
17781;BME280;8498;52.516;13.790;2023-04-28T11:13:48;100946.94;;;19.30;36.27
17781;BME280;8498;52.516;13.790;2023-04-28T11:19:12;100945.09;;;19.31;37.47
17781;BME280;8498;52.516;13.790;2023-04-28T11:24:36;100940.72;;;19.30;37.01
17781;BME280;8498;52.516;13.790;2023-04-28T11:29:59;100940.25;;;19.17;36.92
17781;BME280;8498;52.516;13.790;2023-04-28T11:35:22;100934.91;;;19.42;37.85
17781;BME280;8498;52.516;13.790;2023-04-28T11:40:55;100934.28;;;19.66;37.24
17781;BME280;8498;52.516;13.790;2023-04-28T11:46:23;100925.47;;;19.38;38.37
17781;BME280;8498;52.516;13.790;2023-04-28T11:51:46;100925.59;;;19.37;37.67
17781;BME280;8498;52.516;13.790;2023-04-28T11:57:21;100927.66;;;19.43;37.83
17781;BME280;8498;52.516;13.790;2023-04-28T12:02:44;100915.91;;;19.26;38.51
17781;BME280;8498;52.516;13.790;2023-04-28T12:08:07;100908.47;;;19.20;38.43
17781;BME280;8498;52.516;13.790;2023-04-28T12:13:30;100898.38;;;19.04;39.49
17781;BME280;8498;52.516;13.790;2023-04-28T12:18:58;100903.91;;;18.85;38.32
17781;BME280;8498;52.516;13.790;2023-04-28T12:24:21;100895.50;;;18.70;38.81
17781;BME280;8498;52.516;13.790;2023-04-28T12:29:44;100891.88;;;18.62;39.89
17781;BME280;8498;52.516;13.790;2023-04-28T12:35:10;100887.75;;;18.85;38.59
17781;BME280;8498;52.516;13.790;2023-04-28T12:40:32;100879.81;;;18.84;39.68
17781;BME280;8498;52.516;13.790;2023-04-28T12:45:55;100879.72;;;18.48;38.84
17781;BME280;8498;52.516;13.790;2023-04-28T12:51:18;100867.25;;;18.57;39.70
17781;BME280;8498;52.516;13.790;2023-04-28T12:56:40;100870.94;;;18.56;39.99
17781;BME280;8498;52.516;13.790;2023-04-28T13:02:05;100860.81;;;18.40;39.49
17781;BME280;8498;52.516;13.790;2023-04-28T13:07:28;100858.22;;;18.58;39.88
17781;BME280;8498;52.516;13.790;2023-04-28T13:12:52;100844.16;;;18.54;39.66
17781;BME280;8498;52.516;13.790;2023-04-28T13:18:15;100843.31;;;18.54;39.58
17781;BME280;8498;52.516;13.790;2023-04-28T13:23:38;100828.94;;;18.45;39.76
17781;BME280;8498;52.516;13.790;2023-04-28T13:29:01;100834.06;;;18.66;39.48
17781;BME280;8498;52.516;13.790;2023-04-28T13:34:25;100824.00;;;18.41;39.87
17781;BME280;8498;52.516;13.790;2023-04-28T13:39:48;100823.41;;;18.19;40.28
17781;BME280;8498;52.516;13.790;2023-04-28T13:45:11;100813.00;;;18.16;40.95
17781;BME280;8498;52.516;13.790;2023-04-28T13:50:34;100812.38;;;18.22;40.68
17781;BME280;8498;52.516;13.790;2023-04-28T13:56:00;100806.28;;;18.20;41.49
17781;BME280;8498;52.516;13.790;2023-04-28T14:01:23;100810.50;;;18.05;42.85
17781;BME280;8498;52.516;13.790;2023-04-28T14:06:46;100807.78;;;17.78;45.39
17781;BME280;8498;52.516;13.790;2023-04-28T14:12:09;100801.91;;;17.45;48.00
17781;BME280;8498;52.516;13.790;2023-04-28T14:17:32;100791.03;;;17.47;48.50
17781;BME280;8498;52.516;13.790;2023-04-28T14:22:56;100787.78;;;17.63;48.27
17781;BME280;8498;52.516;13.790;2023-04-28T14:28:19;100787.16;;;17.69;48.89
17781;BME280;8498;52.516;13.790;2023-04-28T14:33:43;100769.44;;;17.76;47.87
17781;BME280;8498;52.516;13.790;2023-04-28T14:39:05;100765.53;;;17.60;46.38
17781;BME280;8498;52.516;13.790;2023-04-28T14:44:27;100758.94;;;17.45;46.26
17781;BME280;8498;52.516;13.790;2023-04-28T14:49:50;100761.50;;;17.37;47.59
17781;BME280;8498;52.516;13.790;2023-04-28T14:55:15;100755.19;;;17.29;47.28
17781;BME280;8498;52.516;13.790;2023-04-28T15:00:37;100754.06;;;17.31;47.95
17781;BME280;8498;52.516;13.790;2023-04-28T15:06:00;100746.56;;;17.25;47.43
17781;BME280;8498;52.516;13.790;2023-04-28T15:11:24;100741.38;;;17.14;47.95
17781;BME280;8498;52.516;13.790;2023-04-28T15:16:47;100733.91;;;17.08;48.46
17781;BME280;8498;52.516;13.790;2023-04-28T15:22:10;100730.78;;;17.03;49.26
17781;BME280;8498;52.516;13.790;2023-04-28T15:27:32;100728.13;;;17.03;49.04
17781;BME280;8498;52.516;13.790;2023-04-28T15:32:54;100727.56;;;16.99;49.71
17781;BME280;8498;52.516;13.790;2023-04-28T15:38:17;100722.22;;;16.99;49.46
17781;BME280;8498;52.516;13.790;2023-04-28T15:43:39;100721.63;;;16.96;50.12
17781;BME280;8498;52.516;13.790;2023-04-28T15:49:02;100720.41;;;16.90;49.36
17781;BME280;8498;52.516;13.790;2023-04-28T15:54:27;100717.72;;;16.80;49.73
17781;BME280;8498;52.516;13.790;2023-04-28T15:59:50;100713.91;;;16.73;49.51
17781;BME280;8498;52.516;13.790;2023-04-28T16:05:13;100719.41;;;16.62;49.56
17781;BME280;8498;52.516;13.790;2023-04-28T16:10:36;100714.31;;;16.59;49.74
17781;BME280;8498;52.516;13.790;2023-04-28T16:15:59;100709.25;;;16.66;50.38
17781;BME280;8498;52.516;13.790;2023-04-28T16:21:22;100704.75;;;16.66;51.99
17781;BME280;8498;52.516;13.790;2023-04-28T16:26:44;100701.75;;;16.60;52.55
17781;BME280;8498;52.516;13.790;2023-04-28T16:32:06;100699.78;;;16.52;52.83
17781;BME280;8498;52.516;13.790;2023-04-28T16:37:29;100697.94;;;16.43;53.00
17781;BME280;8498;52.516;13.790;2023-04-28T16:42:51;100699.91;;;16.41;53.47
17781;BME280;8498;52.516;13.790;2023-04-28T16:48:14;100702.19;;;16.36;54.08
17781;BME280;8498;52.516;13.790;2023-04-28T16:53:37;100699.06;;;16.31;54.39
17781;BME280;8498;52.516;13.790;2023-04-28T16:59:00;100694.84;;;16.28;55.03
17781;BME280;8498;52.516;13.790;2023-04-28T17:04:23;100687.09;;;16.15;55.50
17781;BME280;8498;52.516;13.790;2023-04-28T17:09:46;100695.00;;;16.17;57.55
17781;BME280;8498;52.516;13.790;2023-04-28T17:15:13;100697.69;;;16.36;58.30
17781;BME280;8498;52.516;13.790;2023-04-28T17:20:35;100687.66;;;16.29;57.45
17781;BME280;8498;52.516;13.790;2023-04-28T17:25:59;100682.44;;;16.08;59.02
17781;BME280;8498;52.516;13.790;2023-04-28T17:31:21;100681.69;;;15.87;61.54
17781;BME280;8498;52.516;13.790;2023-04-28T17:36:45;100677.84;;;15.70;62.69
17781;BME280;8498;52.516;13.790;2023-04-28T17:42:07;100673.44;;;15.59;62.33
17781;BME280;8498;52.516;13.790;2023-04-28T17:47:30;100675.78;;;15.53;63.11
17781;BME280;8498;52.516;13.790;2023-04-28T17:52:53;100674.50;;;15.47;63.63
17781;BME280;8498;52.516;13.790;2023-04-28T17:58:16;100680.81;;;15.36;64.46
17781;BME280;8498;52.516;13.790;2023-04-28T18:03:39;100680.38;;;15.31;65.21
17781;BME280;8498;52.516;13.790;2023-04-28T18:09:03;100683.84;;;15.22;66.04
17781;BME280;8498;52.516;13.790;2023-04-28T18:14:25;100689.72;;;15.16;66.69
17781;BME280;8498;52.516;13.790;2023-04-28T18:19:48;100681.25;;;15.11;67.81
17781;BME280;8498;52.516;13.790;2023-04-28T18:25:13;100682.78;;;15.04;69.41
17781;BME280;8498;52.516;13.790;2023-04-28T18:30:38;100690.41;;;14.88;71.95
17781;BME280;8498;52.516;13.790;2023-04-28T18:36:01;100689.56;;;14.66;74.65
17781;BME280;8498;52.516;13.790;2023-04-28T18:41:26;100687.31;;;14.41;78.83
17781;BME280;8498;52.516;13.790;2023-04-28T18:46:48;100689.06;;;14.20;81.75
17781;BME280;8498;52.516;13.790;2023-04-28T18:52:12;100681.09;;;14.09;83.45
17781;BME280;8498;52.516;13.790;2023-04-28T18:57:35;100674.53;;;14.02;84.83
17781;BME280;8498;52.516;13.790;2023-04-28T19:02:57;100682.09;;;13.96;85.94
17781;BME280;8498;52.516;13.790;2023-04-28T19:08:20;100678.22;;;13.89;87.71
17781;BME280;8498;52.516;13.790;2023-04-28T19:13:42;100677.13;;;13.81;88.77
17781;BME280;8498;52.516;13.790;2023-04-28T19:19:06;100676.56;;;13.77;89.16
17781;BME280;8498;52.516;13.790;2023-04-28T19:24:30;100666.13;;;13.74;90.06
17781;BME280;8498;52.516;13.790;2023-04-28T19:29:53;100663.84;;;13.70;90.35
17781;BME280;8498;52.516;13.790;2023-04-28T19:35:15;100657.41;;;13.61;91.17
17781;BME280;8498;52.516;13.790;2023-04-28T19:40:38;100665.56;;;13.59;91.62
17781;BME280;8498;52.516;13.790;2023-04-28T19:46:00;100662.03;;;13.59;91.59
17781;BME280;8498;52.516;13.790;2023-04-28T19:51:23;100665.69;;;13.58;91.78
17781;BME280;8498;52.516;13.790;2023-04-28T19:56:45;100661.56;;;13.54;91.71
17781;BME280;8498;52.516;13.790;2023-04-28T20:02:08;100655.47;;;13.52;91.56
17781;BME280;8498;52.516;13.790;2023-04-28T20:07:31;100652.81;;;13.52;90.60
17781;BME280;8498;52.516;13.790;2023-04-28T20:12:53;100649.28;;;13.51;89.65
17781;BME280;8498;52.516;13.790;2023-04-28T20:18:16;100646.75;;;13.50;88.51
17781;BME280;8498;52.516;13.790;2023-04-28T20:23:38;100655.47;;;13.52;87.47
17781;BME280;8498;52.516;13.790;2023-04-28T20:29:00;100653.31;;;13.46;87.09
17781;BME280;8498;52.516;13.790;2023-04-28T20:34:23;100646.63;;;13.51;86.62
17781;BME280;8498;52.516;13.790;2023-04-28T20:39:46;100642.03;;;13.53;85.58
17781;BME280;8498;52.516;13.790;2023-04-28T20:45:11;100635.84;;;13.53;85.22
17781;BME280;8498;52.516;13.790;2023-04-28T20:50:36;100634.97;;;13.52;84.48
17781;BME280;8498;52.516;13.790;2023-04-28T20:55:59;100633.66;;;13.58;82.92
17781;BME280;8498;52.516;13.790;2023-04-28T21:01:21;100621.00;;;13.60;81.58
17781;BME280;8498;52.516;13.790;2023-04-28T21:06:46;100617.00;;;13.66;81.19
17781;BME280;8498;52.516;13.790;2023-04-28T21:12:10;100611.66;;;13.66;80.44
17781;BME280;8498;52.516;13.790;2023-04-28T21:17:32;100614.94;;;13.69;80.20
17781;BME280;8498;52.516;13.790;2023-04-28T21:22:54;100609.59;;;13.69;79.90
17781;BME280;8498;52.516;13.790;2023-04-28T21:28:18;100601.72;;;13.68;79.51
17781;BME280;8498;52.516;13.790;2023-04-28T21:33:40;100595.53;;;13.67;79.44
17781;BME280;8498;52.516;13.790;2023-04-28T21:39:03;100592.84;;;13.67;78.97
17781;BME280;8498;52.516;13.790;2023-04-28T21:44:25;100592.75;;;13.69;79.71
17781;BME280;8498;52.516;13.790;2023-04-28T21:49:48;100581.56;;;13.64;79.36
17781;BME280;8498;52.516;13.790;2023-04-28T21:55:10;100578.66;;;13.67;78.96
17781;BME280;8498;52.516;13.790;2023-04-28T22:00:38;100569.91;;;13.65;79.08
17781;BME280;8498;52.516;13.790;2023-04-28T22:06:03;100570.91;;;13.64;79.94
17781;BME280;8498;52.516;13.790;2023-04-28T22:11:26;100567.16;;;13.55;80.63
17781;BME280;8498;52.516;13.790;2023-04-28T22:16:49;100565.59;;;13.52;80.00
17781;BME280;8498;52.516;13.790;2023-04-28T22:22:11;100560.13;;;13.54;80.25
17781;BME280;8498;52.516;13.790;2023-04-28T22:27:33;100555.75;;;13.53;80.16
17781;BME280;8498;52.516;13.790;2023-04-28T22:32:56;100558.56;;;13.51;80.16
17781;BME280;8498;52.516;13.790;2023-04-28T22:38:18;100549.00;;;13.49;80.22
17781;BME280;8498;52.516;13.790;2023-04-28T22:43:41;100540.00;;;13.50;79.73
17781;BME280;8498;52.516;13.790;2023-04-28T22:49:04;100542.81;;;13.48;79.95
17781;BME280;8498;52.516;13.790;2023-04-28T22:54:26;100531.28;;;13.48;80.47
17781;BME280;8498;52.516;13.790;2023-04-28T22:59:49;100524.25;;;13.47;80.38
17781;BME280;8498;52.516;13.790;2023-04-28T23:05:12;100527.91;;;13.46;80.07
17781;BME280;8498;52.516;13.790;2023-04-28T23:10:34;100522.31;;;13.49;80.27
17781;BME280;8498;52.516;13.790;2023-04-28T23:15:57;100518.66;;;13.50;80.51
17781;BME280;8498;52.516;13.790;2023-04-28T23:21:21;100509.94;;;13.48;80.55
17781;BME280;8498;52.516;13.790;2023-04-28T23:26:43;100511.88;;;13.46;80.89
17781;BME280;8498;52.516;13.790;2023-04-28T23:32:06;100508.25;;;13.47;81.17
17781;BME280;8498;52.516;13.790;2023-04-28T23:37:28;100508.25;;;13.47;81.44
17781;BME280;8498;52.516;13.790;2023-04-28T23:42:51;100495.75;;;13.47;81.49
17781;BME280;8498;52.516;13.790;2023-04-28T23:48:14;100487.88;;;13.46;82.14
17781;BME280;8498;52.516;13.790;2023-04-28T23:53:36;100476.72;;;13.41;81.91
17781;BME280;8498;52.516;13.790;2023-04-28T23:58:59;100473.47;;;13.37;82.28
